Garden City, Georgia
Current Conditions -  °F | °C
As of 10:53 AM on Monday 22 Dec 2014 (Local Time) from KSAV Reporting Station
Haze Haze  
Wind Chill: 50°   Ceiling: 400
Heat Index: 50°   Visibility: 1mi
Dew Point: 47°   Wind: 8mph
Humidity: 89%   Direction: 60°ENE
Pressure: 30.05"   Gusts: NA
Location:  32.1464°N, 81.2049°W
Report Text: KSAV 221553Z 06007KT 1SM BR OVC004 10/08 A3005 RMK AO2 SFC VIS 2 DZE50 SLP175 P0001 T01000083
Loading
Personal Weather Stations






























Interactive Weather Map New forecast layout! Learn more

10-Day Weather Forecast

Advertisements
Track Severe Weather on mobile